Time;durP1;ratioP1;P1;durP2;ratioP2;P2;SDS_P1;SDS_P2;PMS_P1;PMS_P2;Temp;Humidity;BMP_temperature;BMP_pressure;BME280_temperature;BME280_humidity;BME280_pressure;Samples;Min_cycle;Max_cycle;Signal;HPM_P1;HPM_P2
2022/08/21 00:01:21;;;;;;;2.13;1.40;;;14.90;99.90;;;;;;5116091;28;20645;-82
2022/08/21 00:03:47;;;;;;;2.77;1.37;;;14.90;99.90;;;;;;5117055;28;20172;-83
2022/08/21 00:06:13;;;;;;;1.90;1.60;;;14.80;99.90;;;;;;5116904;28;20719;-83
2022/08/21 00:08:39;;;;;;;1.50;1.40;;;14.90;99.90;;;;;;5116296;28;20199;-83
2022/08/21 00:11:05;;;;;;;1.50;1.40;;;14.80;99.90;;;;;;5116777;28;20663;-83
2022/08/21 00:13:32;;;;;;;1.50;1.40;;;14.80;99.90;;;;;;5115602;28;20306;-82
2022/08/21 00:15:58;;;;;;;5.00;1.63;;;14.80;99.90;;;;;;5115258;28;20574;-83
2022/08/21 00:18:24;;;;;;;1.90;1.33;;;14.80;99.90;;;;;;5115427;28;20199;-83
2022/08/21 00:20:51;;;;;;;1.90;1.80;;;14.80;99.90;;;;;;5117576;28;20329;-82
2022/08/21 00:23:16;;;;;;;1.77;1.67;;;14.80;99.90;;;;;;5117332;28;20254;-83
2022/08/21 00:25:43;;;;;;;1.77;1.67;;;14.80;99.90;;;;;;5117489;28;20202;-84
2022/08/21 00:28:09;;;;;;;1.60;1.40;;;14.70;99.90;;;;;;5115301;28;20199;-84
2022/08/21 00:30:36;;;;;;;1.60;1.37;;;14.70;99.90;;;;;;5116715;28;20645;-84
2022/08/21 00:33:02;;;;;;;1.80;1.60;;;14.70;99.90;;;;;;5117443;28;20644;-83
2022/08/21 00:35:33;;;;;;;1.30;1.20;;;14.70;99.90;;;;;;5116643;28;20203;-83
2022/08/21 00:37:59;;;;;;;4.43;1.40;;;14.60;99.90;;;;;;5115150;28;20209;-84
2022/08/21 00:40:29;;;;;;;1.47;1.30;;;14.70;99.90;;;;;;5116526;28;20176;-83
2022/08/21 00:42:55;;;;;;;2.90;1.50;;;14.60;99.90;;;;;;5116697;28;20175;-83
2022/08/21 00:45:22;;;;;;;1.60;1.47;;;14.60;99.90;;;;;;5116730;28;20171;-84
2022/08/21 00:47:48;;;;;;;1.47;1.37;;;14.60;99.90;;;;;;5116453;28;20240;-83
2022/08/21 00:50:14;;;;;;;3.80;1.40;;;14.60;99.90;;;;;;5116412;28;20171;-83
2022/08/21 00:52:41;;;;;;;1.57;1.47;;;14.60;99.90;;;;;;5115015;28;20179;-83
2022/08/21 00:55:10;;;;;;;1.40;1.30;;;14.50;99.90;;;;;;5116541;28;20193;-83
2022/08/21 00:57:44;;;;;;;1.70;1.37;;;14.50;99.90;;;;;;5114719;28;20272;-83
2022/08/21 01:00:13;;;;;;;1.40;1.30;;;14.50;99.90;;;;;;5120200;27;20180;-82
2022/08/21 01:02:39;;;;;;;2.00;1.33;;;14.60;99.90;;;;;;5116218;28;20170;-82
2022/08/21 01:05:05;;;;;;;3.30;1.40;;;14.50;99.90;;;;;;5114956;28;20178;-82
2022/08/21 01:07:31;;;;;;;2.37;1.43;;;14.50;99.90;;;;;;5114542;28;20195;-82
2022/08/21 01:09:57;;;;;;;1.63;1.53;;;14.50;99.90;;;;;;5115995;28;20246;-82
2022/08/21 01:12:24;;;;;;;1.63;1.47;;;14.50;99.90;;;;;;5118223;28;20179;-83
2022/08/21 01:14:49;;;;;;;1.50;1.40;;;14.50;99.90;;;;;;5118766;28;20284;-81
2022/08/21 01:17:17;;;;;;;2.70;1.53;;;14.50;99.90;;;;;;5117879;28;20215;-82
2022/08/21 01:19:43;;;;;;;2.70;1.27;;;14.50;99.90;;;;;;5114473;28;20299;-82
2022/08/21 01:22:09;;;;;;;1.30;1.20;;;14.50;99.90;;;;;;5115286;28;20185;-81
2022/08/21 01:24:35;;;;;;;1.50;1.40;;;14.50;99.90;;;;;;5117980;28;20179;-83
2022/08/21 01:27:02;;;;;;;1.30;1.20;;;14.50;99.90;;;;;;5115044;28;20176;-82
2022/08/21 01:29:53;;;;;;;1.90;1.40;;;14.50;99.90;;;;;;5115786;28;20249;-82
2022/08/21 01:32:19;;;;;;;1.40;1.30;;;14.50;99.90;;;;;;5114309;28;20187;-82
2022/08/21 01:34:47;;;;;;;1.97;1.30;;;14.40;99.90;;;;;;5115886;28;20176;-82
2022/08/21 01:37:14;;;;;;;3.27;1.70;;;14.50;99.90;;;;;;5118309;28;20302;-82
2022/08/21 01:39:40;;;;;;;2.43;1.50;;;14.40;99.90;;;;;;5118659;28;20179;-83
2022/08/21 01:42:06;;;;;;;1.40;1.20;;;14.50;99.90;;;;;;5115839;28;20258;-82
2022/08/21 01:44:32;;;;;;;1.87;1.70;;;14.40;99.90;;;;;;5116407;28;20186;-82
2022/08/21 01:47:00;;;;;;;1.70;1.50;;;14.40;99.90;;;;;;5115612;28;20175;-80
2022/08/21 01:49:27;;;;;;;1.80;1.30;;;14.40;99.90;;;;;;5116275;28;20249;-82
2022/08/21 01:51:53;;;;;;;1.40;1.30;;;14.30;99.90;;;;;;5114880;28;20266;-82
2022/08/21 01:54:19;;;;;;;1.50;1.40;;;14.30;99.90;;;;;;5115394;28;20175;-82
2022/08/21 01:56:48;;;;;;;1.80;1.60;;;14.30;99.90;;;;;;5119529;28;20195;-83
2022/08/21 01:59:14;;;;;;;4.23;1.70;;;14.20;99.90;;;;;;5117475;28;20221;-83
2022/08/21 02:01:40;;;;;;;1.70;1.60;;;14.30;99.90;;;;;;5115675;28;20164;-82
2022/08/21 02:04:07;;;;;;;1.73;1.63;;;14.20;99.90;;;;;;5114226;28;20223;-83
2022/08/21 02:06:34;;;;;;;1.60;1.50;;;14.20;99.90;;;;;;5113941;28;20649;-82
2022/08/21 02:09:00;;;;;;;1.50;1.40;;;14.20;99.90;;;;;;5113964;28;20656;-83
2022/08/21 02:11:26;;;;;;;1.80;1.70;;;14.20;99.90;;;;;;5114198;28;20175;-82
2022/08/21 02:13:52;;;;;;;2.67;1.50;;;14.20;99.90;;;;;;5115816;28;20178;-82
2022/08/21 02:16:17;;;;;;;4.57;1.67;;;14.20;99.90;;;;;;5114710;28;20724;-82
2022/08/21 02:18:43;;;;;;;1.80;1.70;;;14.10;99.90;;;;;;5115309;28;20266;-82
2022/08/21 02:21:09;;;;;;;3.17;1.30;;;;;;;;;;5116277;28;20170;-82
2022/08/21 02:23:36;;;;;;;2.43;1.80;;;14.10;99.90;;;;;;5115268;28;20174;-82
2022/08/21 02:26:04;;;;;;;1.70;1.60;;;14.10;99.90;;;;;;5115807;28;20258;-82
2022/08/21 02:28:30;;;;;;;1.63;1.53;;;14.10;99.90;;;;;;5115619;28;20622;-82
2022/08/21 02:30:56;;;;;;;1.97;1.43;;;14.10;99.90;;;;;;5115715;28;20170;-82
2022/08/21 02:33:23;;;;;;;3.13;1.53;;;14.00;99.90;;;;;;5122622;28;20203;-82
2022/08/21 02:35:50;;;;;;;4.83;1.70;;;14.00;99.90;;;;;;5119909;28;20214;-82
2022/08/21 02:38:20;;;;;;;7.40;2.40;;;14.00;99.90;;;;;;5119770;28;20282;-82
2022/08/21 02:40:48;;;;;;;1.47;1.30;;;14.00;99.90;;;;;;5122082;28;20163;-82
2022/08/21 05:27:03;;;;;;;2.90;1.90;;;13.70;99.90;;;;;;5134100;27;20278;-82
2022/08/21 05:29:29;;;;;;;2.33;2.10;;;13.70;99.90;;;;;;5133402;28;20277;-83
2022/08/21 05:31:55;;;;;;;2.80;2.50;;;13.70;99.90;;;;;;5132457;28;20174;-83
2022/08/21 05:34:23;;;;;;;3.77;2.50;;;13.70;99.90;;;;;;5133346;27;20174;-83
2022/08/21 05:36:49;;;;;;;2.37;2.17;;;13.80;99.90;;;;;;5131883;28;20271;-83
2022/08/21 05:39:15;;;;;;;2.57;1.90;;;13.80;99.90;;;;;;5133233;27;20214;-83
2022/08/21 05:58:36;;;;;;;1.70;1.60;;;14.30;99.90;;;;;;5138925;27;20288;-83
2022/08/21 06:01:02;;;;;;;3.03;1.70;;;14.30;99.90;;;;;;5134179;28;20265;-83
2022/08/21 06:03:30;;;;;;;1.83;1.67;;;14.40;99.90;;;;;;5136174;28;20700;-83
2022/08/21 06:05:56;;;;;;;3.30;1.63;;;14.40;99.90;;;;;;5132964;28;20187;-84
2022/08/21 06:08:23;;;;;;;2.33;1.40;;;14.50;99.90;;;;;;5135434;28;20198;-83
2022/08/21 06:10:50;;;;;;;2.20;1.47;;;14.60;99.90;;;;;;5133544;27;20167;-83
2022/08/21 06:25:04;;;;;;;4.83;1.53;;;14.90;99.90;;;;;;5134566;27;20271;-84
2022/08/21 06:27:30;;;;;;;1.80;1.27;;;15.00;99.90;;;;;;5133238;28;20752;-83
2022/08/21 06:29:57;;;;;;;1.17;1.07;;;15.00;99.90;;;;;;5133218;27;20163;-82
2022/08/21 06:32:23;;;;;;;3.00;1.67;;;15.10;99.90;;;;;;5132173;28;20171;-82
2022/08/21 06:34:48;;;;;;;4.50;1.40;;;15.10;99.90;;;;;;5133203;27;20514;-82
2022/08/21 06:37:14;;;;;;;1.87;1.30;;;15.30;99.90;;;;;;5132684;28;20253;-83
2022/08/21 06:39:40;;;;;;;2.27;1.13;;;15.20;99.90;;;;;;5131976;28;20171;-82
2022/08/21 06:42:05;;;;;;;1.30;1.20;;;15.30;99.90;;;;;;5132182;28;20171;-83
2022/08/21 06:44:31;;;;;;;2.57;1.27;;;15.40;99.90;;;;;;5131930;28;20695;-83
2022/08/21 06:56:44;;;;;;;2.47;1.43;;;15.70;99.90;;;;;;5137052;27;20606;-83
2022/08/21 06:59:10;;;;;;;1.27;1.13;;;15.70;99.90;;;;;;5129608;28;20289;-85
2022/08/21 07:01:36;;;;;;;4.47;1.40;;;15.80;99.90;;;;;;5132618;28;20196;-83
2022/08/21 07:04:02;;;;;;;2.87;1.60;;;15.90;99.90;;;;;;5132475;28;20173;-83
2022/08/21 07:06:28;;;;;;;2.30;1.30;;;16.00;99.90;;;;;;5132787;28;20197;-83
2022/08/21 07:08:54;;;;;;;6.30;1.63;;;16.10;99.90;;;;;;5132311;28;20198;-83
2022/08/21 07:11:24;;;;;;;2.00;1.50;;;16.20;99.90;;;;;;5133557;27;20525;-83
2022/08/21 07:13:52;;;;;;;1.80;1.40;;;16.30;99.90;;;;;;5133093;28;20209;-84
2022/08/21 07:16:18;;;;;;;1.73;1.50;;;16.40;99.90;;;;;;5133021;28;20262;-83
2022/08/21 07:18:44;;;;;;;1.87;1.70;;;16.60;99.90;;;;;;5132173;28;20536;-83
2022/08/21 07:21:10;;;;;;;1.70;1.40;;;16.60;99.90;;;;;;5133327;27;20174;-83
2022/08/21 07:23:45;;;;;;;2.17;1.70;;;16.70;99.90;;;;;;5131238;28;20628;-83
2022/08/21 07:26:12;;;;;;;1.90;1.73;;;16.80;99.90;;;;;;5132698;28;20171;-83
2022/08/21 07:28:38;;;;;;;2.30;1.53;;;17.00;99.90;;;;;;5131995;28;20202;-83
2022/08/21 07:31:04;;;;;;;3.23;1.73;;;17.10;99.90;;;;;;5132741;28;20175;-84
2022/08/21 07:33:32;;;;;;;3.27;1.43;;;17.20;99.90;;;;;;5131433;28;20181;-83
2022/08/21 07:35:58;;;;;;;5.77;2.43;;;17.30;99.90;;;;;;5130981;28;20202;-84
2022/08/21 07:38:24;;;;;;;4.57;1.67;;;17.50;99.90;;;;;;5131714;28;20546;-84
2022/08/21 07:40:52;;;;;;;5.60;1.60;;;17.60;99.90;;;;;;5131410;28;20172;-83
2022/08/21 07:43:18;;;;;;;2.17;1.60;;;17.70;99.90;;;;;;5131455;28;20179;-83
2022/08/21 07:45:44;;;;;;;3.23;1.53;;;17.80;99.90;;;;;;5132651;27;20176;-83
2022/08/21 07:48:10;;;;;;;2.00;1.50;;;18.00;99.90;;;;;;5130726;28;20286;-83
2022/08/21 07:50:36;;;;;;;3.07;1.60;;;18.00;99.90;;;;;;5132020;27;20172;-84
2022/08/21 07:53:02;;;;;;;2.47;1.50;;;18.10;99.90;;;;;;5130438;28;20533;-83
2022/08/21 07:55:28;;;;;;;3.13;1.77;;;;;;;;;;5132013;27;20204;-83
2022/08/21 07:57:54;;;;;;;2.10;1.27;;;18.50;99.90;;;;;;5130625;28;20193;-83
2022/08/21 08:00:24;;;;;;;5.23;1.53;;;18.50;99.90;;;;;;5130570;28;20195;-84
2022/08/21 08:02:51;;;;;;;2.13;1.50;;;18.60;99.90;;;;;;5131978;27;20173;-83
2022/08/21 08:05:20;;;;;;;3.17;1.43;;;18.70;99.90;;;;;;5130744;28;20260;-84
2022/08/21 08:07:45;;;;;;;4.37;1.57;;;18.90;99.90;;;;;;5118681;28;20205;-83
2022/08/21 08:10:11;;;;;;;3.27;2.20;;;19.00;99.90;;;;;;5116959;28;20522;-83
2022/08/21 08:12:40;;;;;;;3.13;1.60;;;19.30;99.90;;;;;;5118474;28;20523;-82
2022/08/21 08:15:12;;;;;;;3.90;2.13;;;19.30;99.90;;;;;;5118093;28;20209;-84
2022/08/21 08:17:38;;;;;;;2.20;1.50;;;19.60;99.90;;;;;;5117240;28;20239;-83
2022/08/21 08:20:06;;;;;;;4.77;1.60;;;19.60;99.90;;;;;;5120366;28;20167;-84
2022/08/21 08:22:37;;;;;;;2.47;1.73;;;19.70;99.90;;;;;;5117629;28;20182;-84
2022/08/21 08:25:04;;;;;;;2.50;1.50;;;19.80;99.90;;;;;;5118473;28;20176;-85
2022/08/21 08:27:30;;;;;;;3.53;2.37;;;20.10;99.90;;;;;;5117586;28;20270;-84
2022/08/21 08:29:55;;;;;;;3.27;2.00;;;20.10;99.90;;;;;;5119515;28;20632;-82
2022/08/21 08:32:22;;;;;;;6.53;1.53;;;20.20;99.90;;;;;;5118350;28;20180;-85
2022/08/21 08:34:48;;;;;;;2.50;1.60;;;20.30;99.90;;;;;;5118341;28;20565;-84
2022/08/21 08:37:14;;;;;;;2.83;1.67;;;20.50;99.90;;;;;;5117747;28;20224;-85
2022/08/21 08:39:40;;;;;;;5.30;1.70;;;20.60;99.90;;;;;;5117727;28;20266;-84
2022/08/21 08:42:17;;;;;;;3.83;2.03;;;20.70;99.90;;;;;;5119169;27;20186;-82
2022/08/21 08:44:45;;;;;;;4.80;1.37;;;20.80;99.90;;;;;;5118087;28;20270;-84
2022/08/21 08:47:13;;;;;;;2.80;1.40;;;21.00;99.90;;;;;;5118551;28;20197;-83
2022/08/21 08:50:07;;;;;;;2.57;1.60;;;21.10;99.90;;;;;;5117905;28;20369;-83
2022/08/21 08:52:42;;;;;;;3.80;1.60;;;21.30;99.90;;;;;;5118681;28;20580;-83
2022/08/21 08:55:14;;;;;;;2.20;1.20;;;21.50;99.90;;;;;;5119537;28;20252;-82
2022/08/21 08:57:45;;;;;;;1.67;1.33;;;21.60;99.90;;;;;;5116642;28;20279;-81
2022/08/21 09:00:13;;;;;;;2.17;1.50;;;21.60;99.90;;;;;;5116870;28;20254;-83
2022/08/21 09:02:40;;;;;;;1.97;1.53;;;21.40;99.90;;;;;;5117142;28;20220;-84
2022/08/21 09:05:07;;;;;;;2.73;1.50;;;21.00;99.90;;;;;;5117017;28;20231;-82
2022/08/21 09:07:45;;;;;;;4.27;1.63;;;20.70;99.90;;;;;;5118540;28;20198;-82
2022/08/21 09:10:19;;;;;;;3.57;1.40;;;21.00;99.90;;;;;;5118362;28;20168;-84
2022/08/21 09:13:09;;;;;;;2.50;1.27;;;21.60;99.90;;;;;;5117268;28;20253;-80
2022/08/21 09:15:43;;;;;;;3.73;1.53;;;22.10;99.90;;;;;;5118178;28;20274;-83
2022/08/21 09:18:23;;;;;;;3.07;1.63;;;22.40;99.90;;;;;;5116041;28;20192;-83
2022/08/21 09:21:15;;;;;;;4.43;1.67;;;22.50;99.90;;;;;;5117175;28;20500;-82
2022/08/21 09:23:54;;;;;;;7.67;1.70;;;22.70;99.90;;;;;;5117161;28;20176;-84
2022/08/21 09:26:26;;;;;;;5.10;1.97;;;22.90;99.90;;;;;;5116636;28;20176;-82
2022/08/21 09:28:55;;;;;;;3.53;1.80;;;23.10;99.90;;;;;;5116835;28;20684;-84
2022/08/21 09:31:25;;;;;;;2.53;1.83;;;23.30;99.90;;;;;;5116786;28;20182;-83
2022/08/21 09:34:01;;;;;;;2.83;1.70;;;23.20;99.90;;;;;;5118722;28;20168;-83
2022/08/21 09:36:38;;;;;;;6.37;1.50;;;23.50;99.90;;;;;;5117186;28;20190;-82
2022/08/21 09:39:04;;;;;;;2.50;1.60;;;23.90;99.90;;;;;;5117839;28;20652;-80
2022/08/21 09:41:34;;;;;;;3.97;1.90;;;24.40;99.90;;;;;;5119215;28;20188;-82
2022/08/21 09:44:01;;;;;;;5.23;2.67;;;24.60;99.90;;;;;;5120406;28;20580;-83
2022/08/21 09:46:27;;;;;;;3.20;1.67;;;24.70;99.90;;;;;;5120148;28;20294;-83
2022/08/21 09:48:57;;;;;;;3.17;1.67;;;24.90;99.90;;;;;;5121048;28;20191;-83
2022/08/21 09:51:24;;;;;;;2.73;1.70;;;24.90;99.90;;;;;;5122826;28;20171;-82
2022/08/21 09:54:05;;;;;;;2.87;1.63;;;24.70;99.90;;;;;;5120632;28;20634;-83
2022/08/21 09:59:24;;;;;;;4.87;1.93;;;25.20;99.90;;;;;;5117737;28;20204;-84
2022/08/21 10:01:51;;;;;;;4.43;2.43;;;25.60;99.90;;;;;;5117129;28;20259;-84
2022/08/21 10:04:36;;;;;;;2.10;1.90;;;25.90;99.90;;;;;;5117154;28;20639;-80
2022/08/21 10:07:09;;;;;;;2.53;2.13;;;;;;;;;;5117716;28;20307;-83
2022/08/21 10:09:35;;;;;;;2.90;2.00;;;24.60;99.90;;;;;;5115929;28;20219;-85
2022/08/21 10:12:10;;;;;;;2.60;1.80;;;24.50;99.90;;;;;;5117541;27;20169;-83
2022/08/21 10:14:59;;;;;;;3.23;1.97;;;24.50;99.90;;;;;;5116286;28;20248;-84
2022/08/21 10:17:41;;;;;;;3.30;2.33;;;24.30;99.90;;;;;;5115617;28;20206;-83
2022/08/21 10:20:14;;;;;;;3.67;2.10;;;24.40;99.90;;;;;;5116718;28;20224;-84
2022/08/21 10:23:06;;;;;;;3.50;1.67;;;24.80;99.90;;;;;;5116142;28;20181;-84
2022/08/21 10:25:57;;;;;;;1.73;1.60;;;25.40;99.90;;;;;;5092740;28;20232;-82
2022/08/21 10:28:35;;;;;;;2.30;2.00;;;25.90;99.90;;;;;;5117212;28;20236;-83
2022/08/21 10:31:10;;;;;;;2.80;1.97;;;26.20;99.90;;;;;;5117474;28;20174;-82
2022/08/21 10:34:17;;;;;;;2.53;1.73;;;26.50;99.90;;;;;;5118369;28;20176;-84
2022/08/21 10:37:08;;;;;;;2.10;1.90;;;26.70;99.90;;;;;;5083218;28;20625;-83
2022/08/21 10:39:40;;;;;;;4.37;2.00;;;26.90;99.90;;;;;;5119266;28;20201;-84
2022/08/21 10:42:24;;;;;;;5.00;1.80;;;26.90;99.90;;;;;;5115727;28;20184;-84
2022/08/21 10:45:32;;;;;;;3.37;1.60;;;25.80;99.90;;;;;;5116049;28;20197;-84
2022/08/21 10:48:04;;;;;;;2.43;2.00;;;25.00;99.90;;;;;;5114503;28;20291;-83
2022/08/21 10:50:30;;;;;;;3.20;1.97;;;24.40;99.90;;;;;;5117132;28;20168;-83
2022/08/21 10:53:11;;;;;;;2.57;1.90;;;24.40;99.90;;;;;;5117329;28;20525;-81
2022/08/21 10:55:43;;;;;;;2.97;1.77;;;24.90;99.90;;;;;;5116842;28;20191;-81
2022/08/21 10:58:29;;;;;;;3.50;2.30;;;25.70;99.90;;;;;;5116894;28;20195;-82
2022/08/21 11:01:09;;;;;;;2.17;1.97;;;25.80;99.90;;;;;;5116081;28;20239;-83
2022/08/21 11:03:45;;;;;;;2.00;1.57;;;26.30;99.90;;;;;;5116712;28;20206;-83
2022/08/21 11:06:31;;;;;;;2.13;1.80;;;26.80;99.90;;;;;;5117223;28;20565;-83
2022/08/21 11:09:14;;;;;;;3.40;1.90;;;27.00;99.90;;;;;;5116076;28;20191;-82
2022/08/21 11:11:49;;;;;;;6.83;1.83;;;27.30;99.90;;;;;;5116368;28;20214;-83
2022/08/21 11:14:29;;;;;;;3.30;1.93;;;27.40;99.90;;;;;;5116718;28;20169;-82
2022/08/21 11:16:58;;;;;;;2.43;1.80;;;27.50;99.90;;;;;;5115611;28;20176;-84
2022/08/21 11:19:46;;;;;;;2.70;1.90;;;27.70;99.90;;;;;;5115881;28;20242;-84
2022/08/21 11:22:26;;;;;;;2.10;1.90;;;27.60;99.90;;;;;;5116017;28;20186;-81
2022/08/21 11:25:07;;;;;;;3.10;1.50;;;27.20;99.90;;;;;;5116313;28;20216;-82
2022/08/21 11:27:40;;;;;;;1.70;1.60;;;25.90;99.90;;;;;;5115881;28;20199;-81
2022/08/21 11:30:08;;;;;;;2.17;1.73;;;25.70;99.90;;;;;;5115058;28;20184;-80
2022/08/21 11:32:55;;;;;;;3.47;2.00;;;25.20;99.90;;;;;;5117000;28;20190;-83
2022/08/21 11:35:46;;;;;;;3.17;1.97;;;24.70;99.90;;;;;;5116092;28;20264;-83
2022/08/21 11:38:34;;;;;;;2.57;1.90;;;25.70;99.90;;;;;;5113894;28;20279;-84
2022/08/21 11:41:23;;;;;;;1.63;1.53;;;26.00;99.90;;;;;;5114779;28;20183;-81
2022/08/21 11:44:00;;;;;;;2.53;1.80;;;27.00;99.90;;;;;;5110508;28;20188;-82
2022/08/21 11:46:46;;;;;;;3.80;2.00;;;28.40;97.50;;;;;;5118978;28;20215;-84
2022/08/21 11:49:30;;;;;;;1.80;1.60;;;28.50;99.90;;;;;;5118815;28;20196;-83
2022/08/21 11:52:13;;;;;;;2.23;1.60;;;28.70;99.90;;;;;;5119648;28;20663;-82
2022/08/21 11:55:03;;;;;;;3.17;1.83;;;29.20;99.90;;;;;;5119840;28;20230;-81
2022/08/21 11:57:45;;;;;;;1.97;1.77;;;29.10;99.90;;;;;;5119971;28;20232;-84
2022/08/21 12:00:22;;;;;;;2.53;1.80;;;29.00;97.60;;;;;;5119954;27;20238;-84
2022/08/21 12:02:53;;;;;;;2.57;1.60;;;27.40;94.50;;;;;;5119802;28;20641;-83
2022/08/21 12:05:42;;;;;;;2.03;1.83;;;25.90;98.60;;;;;;5118650;28;20688;-83
2022/08/21 12:08:14;;;;;;;3.70;2.00;;;24.20;99.90;;;;;;5117821;28;20197;-83
2022/08/21 12:10:58;;;;;;;1.90;1.70;;;24.00;99.90;;;;;;5118492;28;20535;-84
2022/08/21 12:13:28;;;;;;;2.57;1.93;;;23.80;99.90;;;;;;5118510;28;20175;-83
2022/08/21 12:16:15;;;;;;;3.07;1.77;;;25.30;99.90;;;;;;5120120;28;20700;-83
2022/08/21 12:18:42;;;;;;;2.30;2.03;;;26.50;99.90;;;;;;5118910;28;20206;-83
2022/08/21 12:21:26;;;;;;;3.33;1.80;;;27.90;99.90;;;;;;5120799;28;20177;-82
2022/08/21 12:24:13;;;;;;;1.93;1.73;;;28.10;99.90;;;;;;5121781;28;20179;-82
2022/08/21 12:26:53;;;;;;;2.00;1.80;;;28.70;99.90;;;;;;5120877;28;20207;-84
2022/08/21 12:29:27;;;;;;;2.47;1.80;;;29.20;97.10;;;;;;5117159;28;20687;-83
2022/08/21 12:31:52;;;;;;;1.83;1.67;;;29.20;99.40;;;;;;5118588;28;20634;-81
2022/08/21 12:34:20;;;;;;;2.33;1.70;;;29.40;99.90;;;;;;5118749;28;20175;-83
2022/08/21 12:36:54;;;;;;;3.03;2.03;;;29.60;99.90;;;;;;5118758;28;20535;-83
2022/08/21 12:39:26;;;;;;;2.37;2.10;;;29.40;96.80;;;;;;5118498;28;20201;-83
2022/08/21 12:42:13;;;;;;;2.20;1.57;;;29.40;95.40;;;;;;5118681;28;20180;-83
2022/08/21 12:44:46;;;;;;;1.70;1.60;;;27.90;93.20;;;;;;5118314;28;20179;-82
2022/08/21 12:47:27;;;;;;;2.10;1.90;;;26.00;98.70;;;;;;5117029;28;20179;-82
2022/08/21 12:49:58;;;;;;;1.90;1.67;;;25.90;99.70;;;;;;5118299;28;20177;-83
2022/08/21 12:52:32;;;;;;;2.47;1.83;;;26.00;99.30;;;;;;5118701;28;20167;-82
2022/08/21 12:54:58;;;;;;;4.93;1.70;;;;;;;;;;5118235;28;20187;-83
2022/08/21 12:57:26;;;;;;;1.70;1.60;;;26.90;96.30;;;;;;5116836;28;20176;-82
2022/08/21 12:59:57;;;;;;;6.40;1.77;;;26.90;94.90;;;;;;5116905;28;20694;-83
2022/08/21 13:02:32;;;;;;;2.27;1.60;;;27.30;98.30;;;;;;5118414;28;20172;-82
2022/08/21 13:05:04;;;;;;;3.30;2.00;;;27.60;95.80;;;;;;5118250;28;20204;-82
2022/08/21 13:07:33;;;;;;;4.23;1.70;;;28.10;98.00;;;;;;5117133;28;20177;-82
2022/08/21 13:10:12;;;;;;;2.20;2.10;;;27.90;94.50;;;;;;5116875;28;20177;-84
2022/08/21 13:12:38;;;;;;;3.60;1.83;;;27.90;96.40;;;;;;5117136;28;20178;-82
2022/08/21 13:15:05;;;;;;;2.27;1.90;;;27.70;95.90;;;;;;5117477;28;20541;-84
2022/08/21 13:17:36;;;;;;;4.03;1.87;;;28.50;94.50;;;;;;5117630;28;20178;-83
2022/08/21 13:20:06;;;;;;;3.73;1.60;;;28.60;95.50;;;;;;5117059;28;20273;-84
2022/08/21 13:22:35;;;;;;;2.10;1.47;;;29.10;99.70;;;;;;5118573;28;20521;-84
2022/08/21 13:25:01;;;;;;;2.03;1.83;;;29.80;95.20;;;;;;5117100;28;20195;-84
2022/08/21 13:27:30;;;;;;;4.30;2.20;;;29.60;92.20;;;;;;5117405;28;20175;-83
2022/08/21 13:30:17;;;;;;;2.50;2.07;;;29.60;93.80;;;;;;5117379;28;20654;-83
2022/08/21 13:32:45;;;;;;;1.93;1.60;;;29.40;96.80;;;;;;5117399;28;20176;-83
2022/08/21 13:35:25;;;;;;;2.00;1.70;;;29.80;96.80;;;;;;5118768;28;20196;-83
2022/08/21 13:37:52;;;;;;;1.97;1.73;;;29.50;88.00;;;;;;5116944;28;20194;-85
2022/08/21 13:40:25;;;;;;;1.70;1.60;;;29.40;90.70;;;;;;5117603;28;20208;-84
2022/08/21 13:42:52;;;;;;;6.90;1.97;;;29.50;92.60;;;;;;5118234;28;20172;-81
2022/08/21 13:45:26;;;;;;;2.90;1.87;;;29.80;92.80;;;;;;5116193;28;20202;-82
2022/08/21 13:47:53;;;;;;;3.77;1.87;;;30.20;93.10;;;;;;5117539;28;20272;-83
2022/08/21 13:50:23;;;;;;;2.10;1.70;;;30.30;93.50;;;;;;5117492;28;20172;-84
2022/08/21 13:53:02;;;;;;;1.80;1.70;;;30.50;93.80;;;;;;5117814;28;20181;-84
2022/08/21 13:55:43;;;;;;;2.33;1.63;;;30.40;85.80;;;;;;5116198;28;20188;-83
2022/08/21 13:58:10;;;;;;;1.97;1.87;;;30.30;90.30;;;;;;5116875;28;20196;-83
2022/08/21 14:00:48;;;;;;;2.10;1.90;;;30.20;90.10;;;;;;5116997;28;20176;-84
2022/08/21 14:03:31;;;;;;;1.73;1.63;;;29.80;89.40;;;;;;5118857;28;20172;-83
2022/08/21 14:05:57;;;;;;;2.57;1.60;;;30.30;92.10;;;;;;5118070;28;20199;-82
2022/08/21 14:08:40;;;;;;;1.80;1.60;;;30.90;82.90;;;;;;5117742;28;20184;-84
2022/08/21 14:11:12;;;;;;;1.93;1.70;;;31.00;91.00;;;;;;5117118;28;20657;-83
2022/08/21 14:13:44;;;;;;;2.20;1.50;;;31.50;82.70;;;;;;5115446;28;20529;-82
2022/08/21 14:16:20;;;;;;;2.43;1.57;;;31.20;91.60;;;;;;5115251;28;20179;-83
2022/08/21 14:19:10;;;;;;;1.87;1.63;;;31.60;87.40;;;;;;5115419;28;20204;-82
2022/08/21 14:21:40;;;;;;;2.33;1.87;;;31.60;88.80;;;;;;5115215;28;20361;-84
2022/08/21 14:24:24;;;;;;;2.53;1.67;;;30.70;76.40;;;;;;5116813;28;20219;-82
2022/08/21 14:26:58;;;;;;;2.70;1.90;;;30.90;84.40;;;;;;5117067;28;20200;-83
2022/08/21 14:29:27;;;;;;;1.97;1.77;;;31.50;81.30;;;;;;5117186;28;20184;-84
2022/08/21 14:31:59;;;;;;;1.77;1.60;;;31.90;82.80;;;;;;5116971;28;20634;-82
2022/08/21 14:34:27;;;;;;;1.93;1.70;;;31.50;78.90;;;;;;5116135;28;20196;-82
2022/08/21 14:36:53;;;;;;;7.03;1.90;;;31.30;77.40;;;;;;5116577;28;20189;-82
2022/08/21 14:39:19;;;;;;;2.20;2.00;;;30.70;75.30;;;;;;5115819;28;20191;-84
2022/08/21 14:41:47;;;;;;;2.57;1.80;;;30.40;79.60;;;;;;5117043;28;20517;-83
2022/08/21 14:44:18;;;;;;;2.40;2.20;;;30.50;78.00;;;;;;5116621;28;20235;-84
2022/08/21 14:46:45;;;;;;;2.60;2.10;;;31.00;74.10;;;;;;5116684;28;20284;-82
2022/08/21 14:49:11;;;;;;;2.73;2.10;;;30.80;74.80;;;;;;5116314;28;20191;-80
2022/08/21 14:51:38;;;;;;;1.73;1.57;;;31.00;74.60;;;;;;5115827;28;20186;-83
2022/08/21 14:54:05;;;;;;;2.80;2.10;;;31.00;77.40;;;;;;5114952;28;20250;-82
2022/08/21 14:56:32;;;;;;;3.00;1.97;;;30.80;77.30;;;;;;5116252;28;20194;-85
2022/08/21 14:59:02;;;;;;;3.70;2.20;;;31.10;80.00;;;;;;5114806;28;20544;-84
2022/08/21 15:01:28;;;;;;;3.97;2.20;;;30.80;79.20;;;;;;5115266;28;20249;-82
2022/08/21 15:03:54;;;;;;;2.60;1.80;;;;;;;;;;5116918;28;20168;-84
2022/08/21 15:06:21;;;;;;;2.70;2.10;;;;;;;;;;5116508;28;20267;-81
2022/08/21 15:08:48;;;;;;;2.00;1.77;;;30.30;78.10;;;;;;5115157;28;20193;-83
2022/08/21 15:11:18;;;;;;;5.03;2.03;;;30.50;77.20;;;;;;5115033;28;20170;-82
2022/08/21 15:13:45;;;;;;;3.20;1.90;;;30.00;81.30;;;;;;5115329;28;20174;-81
2022/08/21 15:16:11;;;;;;;3.90;1.90;;;30.10;77.60;;;;;;5115477;28;20189;-84
2022/08/21 15:18:37;;;;;;;2.03;1.83;;;30.30;89.30;;;;;;5120632;28;20248;-83
2022/08/21 15:21:03;;;;;;;2.27;1.83;;;29.40;74.80;;;;;;5119643;28;20244;-82
2022/08/21 15:23:29;;;;;;;1.97;1.70;;;29.50;73.10;;;;;;5121830;28;20172;-83
2022/08/21 15:25:57;;;;;;;3.60;1.70;;;28.80;86.00;;;;;;5121010;28;20669;-84
2022/08/21 15:28:24;;;;;;;2.20;1.73;;;28.70;85.50;;;;;;5118784;28;20673;-81
2022/08/21 15:30:51;;;;;;;3.03;1.80;;;28.30;83.70;;;;;;5119689;28;20214;-83
2022/08/21 15:33:17;;;;;;;1.80;1.70;;;28.50;79.80;;;;;;5119884;28;20172;-83
2022/08/21 15:35:45;;;;;;;2.40;1.90;;;28.50;79.70;;;;;;5119566;28;20271;-83
2022/08/21 15:38:12;;;;;;;1.87;1.73;;;28.80;84.40;;;;;;5121698;28;20342;-83
2022/08/21 15:40:38;;;;;;;2.20;2.00;;;;;;;;;;5120704;28;20176;-84
2022/08/21 15:43:05;;;;;;;2.37;1.93;;;27.90;76.60;;;;;;5121587;28;20261;-83
2022/08/21 15:45:32;;;;;;;19.37;3.00;;;26.80;79.60;;;;;;5120101;28;20296;-82
2022/08/21 15:47:57;;;;;;;3.63;2.80;;;25.40;87.10;;;;;;5119811;28;20698;-81
2022/08/21 15:50:24;;;;;;;4.50;2.07;;;25.10;90.20;;;;;;5121691;28;20172;-82
2022/08/21 15:52:50;;;;;;;5.73;3.30;;;25.00;90.40;;;;;;5121532;28;20526;-81
2022/08/21 15:55:16;;;;;;;6.50;2.20;;;25.60;89.40;;;;;;5124569;28;20191;-83
2022/08/21 15:57:47;;;;;;;3.13;1.70;;;25.20;88.40;;;;;;5121234;28;20618;-82
2022/08/21 16:00:17;;;;;;;3.93;1.77;;;25.20;88.90;;;;;;5122022;28;20256;-82
2022/08/21 16:02:46;;;;;;;3.50;2.43;;;25.40;86.40;;;;;;5121990;28;20175;-83
2022/08/21 16:05:12;;;;;;;13.03;7.03;;;25.30;87.30;;;;;;5118429;28;20218;-84
2022/08/21 16:07:39;;;;;;;7.27;4.47;;;24.70;90.70;;;;;;5119404;27;20530;-83
2022/08/21 16:10:05;;;;;;;4.77;2.80;;;24.60;91.50;;;;;;5119418;28;20498;-83
2022/08/21 16:12:37;;;;;;;3.10;2.10;;;24.30;91.40;;;;;;5117948;28;20633;-83
2022/08/21 16:15:07;;;;;;;3.00;2.23;;;24.00;91.40;;;;;;5118751;28;20262;-81
2022/08/21 16:17:35;;;;;;;2.57;2.20;;;23.50;91.80;;;;;;5119247;28;20179;-82
2022/08/21 16:20:04;;;;;;;2.50;2.10;;;23.50;90.10;;;;;;5120981;28;20180;-82
2022/08/21 16:22:30;;;;;;;8.53;2.90;;;23.10;90.00;;;;;;5117943;28;20176;-82
2022/08/21 16:24:56;;;;;;;2.30;2.10;;;;;;;;;;5118543;27;20219;-81
2022/08/21 16:27:22;;;;;;;3.00;2.00;;;;;;;;;;5116543;28;20170;-83
2022/08/21 16:29:48;;;;;;;2.33;1.97;;;22.50;91.60;;;;;;5119205;28;20712;-83
2022/08/21 16:32:14;;;;;;;2.80;1.90;;;;;;;;;;5118384;28;20170;-82
2022/08/21 16:34:46;;;;;;;3.80;2.00;;;22.20;90.80;;;;;;5118275;28;20168;-80